createdAt,value
2022-09-16T00:05:07.530Z,1017
2022-09-16T00:15:07.514Z,1017
2022-09-16T00:25:07.436Z,1017
2022-09-16T00:35:07.511Z,1017
2022-09-16T00:45:07.427Z,1017
2022-09-16T00:55:07.511Z,1017
2022-09-16T01:05:07.444Z,1017
2022-09-16T01:15:07.501Z,1017
2022-09-16T01:25:07.421Z,1017
2022-09-16T01:35:07.504Z,1017
2022-09-16T01:45:07.625Z,1017
2022-09-16T01:55:07.491Z,1017
2022-09-16T02:05:07.623Z,1017
2022-09-16T02:15:07.484Z,1017
2022-09-16T02:25:07.600Z,1017
2022-09-16T02:35:07.472Z,1017
2022-09-16T02:45:07.590Z,1017
2022-09-16T02:55:07.674Z,1017
2022-09-16T03:05:07.594Z,1017
2022-09-16T03:15:07.675Z,1017
2022-09-16T03:25:07.616Z,1017
2022-09-16T03:35:07.873Z,1017
2022-09-16T03:45:07.627Z,1017
2022-09-16T03:55:07.691Z,1017
2022-09-16T04:05:07.605Z,1017
2022-09-16T04:15:07.685Z,1017
2022-09-16T04:25:07.619Z,1017
2022-09-16T04:35:07.695Z,1017
2022-09-16T04:45:07.809Z,1017
2022-09-16T04:55:07.673Z,1017
2022-09-16T05:05:07.806Z,1017
2022-09-16T05:15:07.694Z,1017
2022-09-16T05:25:07.920Z,1017
2022-09-16T05:35:07.685Z,1017
2022-09-16T05:45:07.900Z,1017
2022-09-16T05:55:07.682Z,1017
2022-09-16T06:05:07.927Z,1017
2022-09-16T06:15:07.687Z,1017
2022-09-16T06:25:07.898Z,1017
2022-09-16T06:35:07.872Z,1017
2022-09-16T06:45:07.876Z,1017
2022-09-16T06:55:07.877Z,1017
2022-09-16T07:05:07.895Z,1017
2022-09-16T07:15:07.876Z,1017
2022-09-16T07:25:07.885Z,1017
2022-09-16T07:35:07.885Z,1017
2022-09-16T07:45:07.906Z,1018
2022-09-16T07:55:07.882Z,1018
2022-09-16T08:05:08.099Z,1018
2022-09-16T08:15:07.924Z,1018
2022-09-16T08:25:08.088Z,1018
2022-09-16T08:35:07.864Z,1018
2022-09-16T08:45:08.099Z,1018
2022-09-16T08:55:07.884Z,1018
2022-09-16T09:05:08.102Z,1018
2022-09-16T09:15:07.919Z,1019
2022-09-16T09:25:08.112Z,1019
2022-09-16T09:35:08.101Z,1019
2022-09-16T09:45:08.105Z,1019
2022-09-16T09:55:08.070Z,1020
2022-09-16T10:05:08.099Z,1020
2022-09-16T10:15:08.091Z,1020
2022-09-16T10:25:08.093Z,1020
2022-09-16T10:35:08.057Z,1021
2022-09-16T10:45:08.102Z,1021
2022-09-16T10:55:08.058Z,1021
2022-09-16T11:05:08.299Z,1021
2022-09-16T11:15:08.049Z,1021
2022-09-16T11:25:08.306Z,1021
2022-09-16T11:35:08.073Z,1021
2022-09-16T11:45:08.314Z,1021
2022-09-16T11:55:08.057Z,1021
2022-09-16T12:05:08.287Z,1022
2022-09-16T12:15:08.078Z,1022
2022-09-16T12:25:08.306Z,1022
2022-09-16T12:35:08.306Z,1022
2022-09-16T12:45:08.307Z,1024
2022-09-16T12:55:08.962Z,1024
2022-09-16T13:05:08.320Z,1024
2022-09-16T13:15:08.283Z,1024
2022-09-16T13:25:08.308Z,1025
2022-09-16T13:35:08.272Z,1025
2022-09-16T13:45:08.284Z,1025
2022-09-16T13:55:10.787Z,1025
2022-09-16T14:05:08.292Z,1026
2022-09-16T14:15:08.272Z,1026
2022-09-16T14:25:19.438Z,1026
2022-09-16T14:35:08.253Z,1026
2022-09-16T14:45:08.484Z,1027
2022-09-16T14:55:08.265Z,1027
2022-09-16T15:05:08.500Z,1027
2022-09-16T15:15:08.260Z,1027
2022-09-16T15:25:08.486Z,1027
2022-09-16T15:35:08.261Z,1027
2022-09-16T15:45:08.480Z,1027
2022-09-16T15:55:08.277Z,1027
2022-09-16T16:05:08.495Z,1027
2022-09-16T16:15:08.451Z,1026
2022-09-16T16:25:08.516Z,1026
2022-09-16T16:35:08.491Z,1026
2022-09-16T16:45:08.509Z,1026
2022-09-16T16:55:08.475Z,1025
2022-09-16T17:05:08.630Z,1025
2022-09-16T17:15:08.500Z,1025
2022-09-16T17:25:08.511Z,1025
2022-09-16T17:35:08.501Z,1025
2022-09-16T17:45:08.540Z,1025
2022-09-16T17:55:08.513Z,1025
2022-09-16T18:05:08.741Z,1025
2022-09-16T18:15:08.491Z,1024
2022-09-16T18:25:08.717Z,1024
2022-09-16T18:35:08.536Z,1024
2022-09-16T18:45:08.759Z,1024
2022-09-16T18:55:08.532Z,1023
2022-09-16T19:05:08.749Z,1023
2022-09-16T19:15:08.490Z,1023
2022-09-16T19:25:08.711Z,1023
2022-09-16T19:35:08.515Z,1023
2022-09-16T19:45:08.814Z,1023
2022-09-16T19:55:08.996Z,1023
2022-09-16T20:05:09.198Z,1023
2022-09-16T20:15:08.681Z,1023
2022-09-16T20:25:22.268Z,1023
2022-09-16T20:35:08.683Z,1023
2022-09-16T20:45:08.709Z,1023
2022-09-16T20:55:08.679Z,1023
2022-09-16T21:05:08.692Z,1023
2022-09-16T21:15:08.673Z,1023
2022-09-16T21:25:08.892Z,1023
2022-09-16T21:35:08.734Z,1023
2022-09-16T21:45:08.764Z,1023
2022-09-16T21:55:08.726Z,1023
2022-09-16T22:05:08.745Z,1023
2022-09-16T22:15:08.713Z,1023
2022-09-16T22:25:08.945Z,1023
2022-09-16T22:35:08.719Z,1023
2022-09-16T22:45:08.950Z,1023
2022-09-16T22:55:08.723Z,1023
2022-09-16T23:05:08.937Z,1023
2022-09-16T23:15:08.710Z,1023
2022-09-16T23:25:08.928Z,1023
2022-09-16T23:35:09.086Z,1023
2022-09-16T23:45:08.930Z,1023
2022-09-16T23:55:08.899Z,1023
